AFR872 HAAB-LFPG
Flight info
| Callsign | AFR872 |
|---|---|
| Flight time | N/A |
| Altitude | 36000 |
| Route | LABL3A LABLA UT124 ALRAP/N0499F350 DCT KSL DCT PSD/N0495F360 P751 METRU DCT KRK/N0477F380 UL53 OLGAT DCT AIOSA DCT BAXON DCT RIXUV DCT PUNSA DCT UNKIR UM982 TINIL TINI9X |
| Aircraft | B77W/H-SDE1E2E3FGHIJ2J3J4J5M1RWXYZ/LB1D1 |
Departure
| Time | 2026-05-05 10:38 |
|---|---|
| Airport | Addis Ababa Bole International Airport (HAAB) |
Arrival
| Time | N/A |
|---|---|
| Airport | Charles de Gaulle International Airport (LFPG) |
| Time | Latitude | Longitude | Altitude | Speed | Heading |
|---|---|---|---|---|---|
| 2026-05-05 09:51 | 8.98231 | 38.79662 | 7615 ft | 0 kts | 345° |
| 2026-05-05 09:54 | 8.98230 | 38.79662 | 7621 ft | 0 kts | 345° |
| 2026-05-05 10:23 | 8.98228 | 38.79663 | 7621 ft | 1 kts | 345° |
| 2026-05-05 10:23 | 8.98215 | 38.79666 | 7625 ft | 3 kts | 342° |
| 2026-05-05 10:23 | 8.98198 | 38.79673 | 7627 ft | 3 kts | 323° |
| 2026-05-05 10:24 | 8.98186 | 38.79684 | 7626 ft | 2 kts | 298° |
| 2026-05-05 10:24 | 8.98180 | 38.79699 | 7628 ft | 2 kts | 274° |
| 2026-05-05 10:24 | 8.98181 | 38.79718 | 7628 ft | 3 kts | 259° |
| 2026-05-05 10:24 | 8.98185 | 38.79738 | 7623 ft | 3 kts | 255° |
| 2026-05-05 10:25 | 8.98188 | 38.79749 | 7623 ft | 1 kts | 256° |
| 2026-05-05 10:25 | 8.98189 | 38.79755 | 7623 ft | 0 kts | 256° |
| 2026-05-05 10:27 | 8.98190 | 38.79755 | 7623 ft | 0 kts | 256° |
| 2026-05-05 10:32 | 8.98187 | 38.79744 | 7624 ft | 7 kts | 256° |
| 2026-05-05 10:32 | 8.98159 | 38.79647 | 7622 ft | 14 kts | 252° |
| 2026-05-05 10:32 | 8.98134 | 38.79562 | 7622 ft | 12 kts | 256° |
| 2026-05-05 10:32 | 8.98110 | 38.79478 | 7623 ft | 12 kts | 256° |
| 2026-05-05 10:33 | 8.98085 | 38.79393 | 7623 ft | 12 kts | 253° |
| 2026-05-05 10:33 | 8.98062 | 38.79310 | 7624 ft | 12 kts | 253° |
| 2026-05-05 10:33 | 8.98039 | 38.79226 | 7624 ft | 12 kts | 259° |
| 2026-05-05 10:33 | 8.98020 | 38.79140 | 7627 ft | 12 kts | 255° |
| 2026-05-05 10:34 | 8.97996 | 38.79056 | 7625 ft | 12 kts | 253° |
| 2026-05-05 10:34 | 8.97971 | 38.78973 | 7626 ft | 12 kts | 253° |
| 2026-05-05 10:34 | 8.97946 | 38.78889 | 7626 ft | 12 kts | 253° |
| 2026-05-05 10:34 | 8.97921 | 38.78805 | 7627 ft | 12 kts | 253° |
| 2026-05-05 10:35 | 8.97876 | 38.78742 | 7627 ft | 10 kts | 195° |
| 2026-05-05 10:35 | 8.97806 | 38.78733 | 7627 ft | 11 kts | 206° |
| 2026-05-05 10:35 | 8.97765 | 38.78645 | 7628 ft | 21 kts | 253° |
| 2026-05-05 10:35 | 8.97708 | 38.78457 | 7629 ft | 35 kts | 253° |
| 2026-05-05 10:36 | 8.97540 | 38.78262 | 7631 ft | 40 kts | 205° |
| 2026-05-05 10:36 | 8.97329 | 38.78299 | 7630 ft | 8 kts | 144° |
| 2026-05-05 10:36 | 8.97326 | 38.78301 | 7630 ft | 2 kts | 145° |
| 2026-05-05 10:36 | 8.97280 | 38.78337 | 7630 ft | 15 kts | 140° |
| 2026-05-05 10:37 | 8.97258 | 38.78444 | 7630 ft | 21 kts | 73° |
| 2026-05-05 10:37 | 8.97328 | 38.78682 | 7628 ft | 61 kts | 73° |
| 2026-05-05 10:37 | 8.97517 | 38.79325 | 7623 ft | 129 kts | 73° |
| 2026-05-05 10:37 | 8.97829 | 38.80396 | 7618 ft | 186 kts | 71° |
| 2026-05-05 10:38 | 8.98230 | 38.81723 | 8023 ft | 198 kts | 75° |
| 2026-05-05 10:38 | 8.98664 | 38.83092 | 8576 ft | 211 kts | 73° |
| 2026-05-05 10:38 | 8.99117 | 38.84514 | 9126 ft | 212 kts | 73° |
| 2026-05-05 10:38 | 8.99498 | 38.85919 | 9946 ft | 202 kts | 78° |
| 2026-05-05 10:39 | 8.99825 | 38.87342 | 10369 ft | 215 kts | 76° |
| 2026-05-05 10:39 | 9.00188 | 38.88795 | 10926 ft | 212 kts | 76° |
| 2026-05-05 10:39 | 9.00562 | 38.90228 | 11495 ft | 213 kts | 74° |
| 2026-05-05 10:39 | 9.00954 | 38.91691 | 11993 ft | 214 kts | 75° |
| 2026-05-05 10:40 | 9.01547 | 38.93056 | 12382 ft | 215 kts | 45° |
| 2026-05-05 10:40 | 9.02865 | 38.93769 | 12742 ft | 224 kts | 13° |
| 2026-05-05 10:40 | 9.04483 | 38.93722 | 12900 ft | 247 kts | 348° |
| 2026-05-05 10:40 | 9.06109 | 38.92950 | 13037 ft | 273 kts | 324° |
| 2026-05-05 10:41 | 9.07468 | 38.91505 | 13245 ft | 295 kts | 312° |
| 2026-05-05 10:41 | 9.08798 | 38.89836 | 13515 ft | 315 kts | 311° |
| 2026-05-05 10:41 | 9.10209 | 38.88051 | 13686 ft | 337 kts | 312° |
| 2026-05-05 10:41 | 9.11734 | 38.86152 | 13877 ft | 359 kts | 312° |
| 2026-05-05 10:42 | 9.15130 | 38.82022 | 14202 ft | 400 kts | 312° |
| 2026-05-05 10:42 | 9.16938 | 38.79849 | 14740 ft | 406 kts | 313° |
| 2026-05-05 10:42 | 9.18929 | 38.77854 | 15305 ft | 406 kts | 326° |
| 2026-05-05 10:43 | 9.21314 | 38.76286 | 15868 ft | 410 kts | 331° |
| 2026-05-05 10:43 | 9.23773 | 38.74782 | 16355 ft | 417 kts | 331° |
| 2026-05-05 10:43 | 9.26263 | 38.73245 | 16872 ft | 422 kts | 330° |
| 2026-05-05 10:43 | 9.28767 | 38.71663 | 17426 ft | 427 kts | 329° |
| 2026-05-05 10:44 | 9.31281 | 38.70045 | 18026 ft | 430 kts | 329° |
| 2026-05-05 10:44 | 9.33819 | 38.68394 | 18584 ft | 433 kts | 329° |
| 2026-05-05 10:44 | 9.36355 | 38.66740 | 19115 ft | 437 kts | 329° |
| 2026-05-05 10:44 | 9.38911 | 38.65075 | 19642 ft | 440 kts | 329° |
| 2026-05-05 10:45 | 9.41513 | 38.63423 | 20199 ft | 441 kts | 330° |
| 2026-05-05 10:45 | 9.44153 | 38.61795 | 20642 ft | 446 kts | 330° |
| 2026-05-05 10:45 | 9.46815 | 38.60175 | 21065 ft | 451 kts | 330° |
| 2026-05-05 10:45 | 9.49512 | 38.58533 | 21594 ft | 453 kts | 330° |
| 2026-05-05 10:46 | 9.52221 | 38.56880 | 22131 ft | 455 kts | 330° |
| 2026-05-05 10:46 | 9.54941 | 38.55215 | 22595 ft | 458 kts | 329° |
| 2026-05-05 10:46 | 9.57673 | 38.53535 | 23050 ft | 461 kts | 329° |
| 2026-05-05 10:46 | 9.60407 | 38.51851 | 23527 ft | 463 kts | 329° |
| 2026-05-05 10:47 | 9.63139 | 38.50169 | 23922 ft | 465 kts | 329° |
| 2026-05-05 10:47 | 9.65918 | 38.48459 | 24303 ft | 467 kts | 329° |
| 2026-05-05 10:47 | 9.68697 | 38.46747 | 24688 ft | 470 kts | 329° |
| 2026-05-05 10:47 | 9.71476 | 38.45035 | 25049 ft | 471 kts | 329° |
| 2026-05-05 10:48 | 9.74302 | 38.43292 | 25428 ft | 473 kts | 329° |
| 2026-05-05 10:48 | 9.77118 | 38.41555 | 25791 ft | 475 kts | 329° |
| 2026-05-05 10:48 | 9.79948 | 38.39809 | 26130 ft | 478 kts | 329° |
| 2026-05-05 10:48 | 9.82802 | 38.38049 | 26469 ft | 480 kts | 328° |
| 2026-05-05 10:49 | 9.85663 | 38.36285 | 26795 ft | 482 kts | 328° |
| 2026-05-05 10:49 | 9.88530 | 38.34516 | 27135 ft | 484 kts | 328° |
| 2026-05-05 10:49 | 9.91416 | 38.32735 | 27458 ft | 487 kts | 328° |
| 2026-05-05 10:49 | 9.94310 | 38.30948 | 27733 ft | 490 kts | 328° |
| 2026-05-05 10:50 | 9.97236 | 38.29142 | 28074 ft | 491 kts | 328° |
| 2026-05-05 10:50 | 10.00154 | 38.27340 | 28439 ft | 491 kts | 328° |
| 2026-05-05 10:50 | 10.03077 | 38.25535 | 28724 ft | 494 kts | 328° |
| 2026-05-05 10:50 | 10.06013 | 38.23720 | 29031 ft | 495 kts | 328° |
| 2026-05-05 10:51 | 10.08969 | 38.21894 | 29270 ft | 498 kts | 328° |
| 2026-05-05 10:51 | 10.11932 | 38.20064 | 29470 ft | 501 kts | 328° |
| 2026-05-05 10:51 | 10.14897 | 38.18231 | 29772 ft | 500 kts | 328° |
| 2026-05-05 10:51 | 10.17876 | 38.16389 | 30192 ft | 497 kts | 328° |
| 2026-05-05 10:52 | 10.20820 | 38.14568 | 30525 ft | 496 kts | 328° |
| 2026-05-05 10:52 | 10.23763 | 38.12747 | 30754 ft | 498 kts | 328° |
| 2026-05-05 10:52 | 10.26726 | 38.10914 | 31044 ft | 497 kts | 328° |
| 2026-05-05 10:52 | 10.29682 | 38.09085 | 31353 ft | 497 kts | 328° |
| 2026-05-05 10:53 | 10.32634 | 38.07258 | 31621 ft | 497 kts | 328° |
| 2026-05-05 10:53 | 10.35589 | 38.05428 | 31843 ft | 499 kts | 328° |
| 2026-05-05 10:53 | 10.38555 | 38.03591 | 32135 ft | 499 kts | 328° |
| 2026-05-05 10:53 | 10.41514 | 38.01758 | 32410 ft | 498 kts | 328° |
| 2026-05-05 10:54 | 10.44483 | 37.99918 | 32714 ft | 498 kts | 328° |
| 2026-05-05 10:54 | 10.47445 | 37.98082 | 32960 ft | 498 kts | 328° |
| 2026-05-05 10:54 | 10.50387 | 37.96258 | 33228 ft | 499 kts | 328° |
| 2026-05-05 10:54 | 10.53359 | 37.94415 | 33490 ft | 499 kts | 328° |
| 2026-05-05 10:55 | 10.56327 | 37.92577 | 33767 ft | 498 kts | 328° |
| 2026-05-05 10:55 | 10.59319 | 37.90784 | 33956 ft | 500 kts | 329° |
| 2026-05-05 10:55 | 10.62302 | 37.89047 | 34000 ft | 502 kts | 329° |
| 2026-05-05 10:56 | 10.68401 | 37.85542 | 34022 ft | 499 kts | 329° |
| 2026-05-05 10:56 | 10.74377 | 37.82091 | 34015 ft | 495 kts | 329° |
| 2026-05-05 10:57 | 10.80340 | 37.78625 | 34007 ft | 493 kts | 329° |
| 2026-05-05 10:57 | 10.86330 | 37.75131 | 34001 ft | 493 kts | 329° |
| 2026-05-05 10:58 | 10.92287 | 37.71656 | 33993 ft | 494 kts | 329° |
| 2026-05-05 10:58 | 10.98267 | 37.68167 | 33979 ft | 496 kts | 329° |
| 2026-05-05 10:59 | 11.04228 | 37.64688 | 33967 ft | 498 kts | 329° |
| 2026-05-05 10:59 | 11.10224 | 37.61187 | 33962 ft | 497 kts | 329° |
| 2026-05-05 11:00 | 11.16213 | 37.57688 | 33951 ft | 495 kts | 329° |
| 2026-05-05 11:00 | 11.22181 | 37.54200 | 33955 ft | 495 kts | 329° |
| 2026-05-05 11:01 | 11.28167 | 37.50699 | 33958 ft | 496 kts | 329° |
| 2026-05-05 11:01 | 11.34156 | 37.47196 | 33954 ft | 496 kts | 329° |
| 2026-05-05 11:02 | 11.40135 | 37.43696 | 33932 ft | 496 kts | 329° |
| 2026-05-05 11:02 | 11.46111 | 37.40196 | 33929 ft | 496 kts | 329° |
| 2026-05-05 11:03 | 11.52105 | 37.36682 | 33919 ft | 496 kts | 329° |
| 2026-05-05 11:03 | 11.58087 | 37.33175 | 33919 ft | 496 kts | 329° |
| 2026-05-05 11:04 | 11.64059 | 37.29749 | 33924 ft | 498 kts | 331° |
| 2026-05-05 11:04 | 11.70222 | 37.26491 | 33917 ft | 498 kts | 332° |
| 2026-05-05 11:05 | 11.76385 | 37.23270 | 33917 ft | 497 kts | 332° |
| 2026-05-05 11:05 | 11.82527 | 37.20018 | 33920 ft | 497 kts | 332° |
| 2026-05-05 11:06 | 11.88654 | 37.16747 | 33913 ft | 497 kts | 331° |